createdAt,value
2023-01-30T00:02:18.929Z,8.30
2023-01-30T00:05:04.711Z,8.20
2023-01-30T00:07:50.067Z,8.20
2023-01-30T00:10:35.757Z,8.10
2023-01-30T00:13:21.357Z,8.00
2023-01-30T00:16:07.484Z,7.90
2023-01-30T00:18:52.891Z,7.80
2023-01-30T00:21:38.348Z,7.60
2023-01-30T00:24:24.119Z,7.90
2023-01-30T00:27:09.545Z,7.80
2023-01-30T00:30:02.904Z,7.80
2023-01-30T00:32:53.787Z,7.80
2023-01-30T00:35:44.332Z,7.70
2023-01-30T00:38:31.479Z,7.70
2023-01-30T00:41:18.799Z,7.70
2023-01-30T00:44:22.852Z,7.70
2023-01-30T00:47:09.205Z,7.80
2023-01-30T00:49:54.803Z,7.50
2023-01-30T00:52:40.418Z,7.70
2023-01-30T00:55:26.129Z,7.80
2023-01-30T00:58:12.632Z,7.80
2023-01-30T01:00:58.411Z,7.90
2023-01-30T01:03:44.109Z,7.80
2023-01-30T01:06:29.747Z,7.70
2023-01-30T01:09:15.508Z,7.90
2023-01-30T01:12:01.089Z,7.90
2023-01-30T01:14:46.796Z,7.90
2023-01-30T01:17:32.548Z,7.90
2023-01-30T01:20:18.767Z,7.80
2023-01-30T01:23:04.629Z,7.90
2023-01-30T01:25:50.133Z,7.80
2023-01-30T01:28:35.913Z,7.80
2023-01-30T01:31:22.246Z,7.70
2023-01-30T01:34:07.823Z,7.60
2023-01-30T01:36:54.584Z,7.50
2023-01-30T01:39:58.757Z,7.50
2023-01-30T01:42:45.791Z,7.70
2023-01-30T01:45:31.484Z,7.50
2023-01-30T01:48:20.880Z,7.60
2023-01-30T01:51:11.674Z,7.60
2023-01-30T01:54:17.244Z,7.70
2023-01-30T01:57:05.022Z,7.80
2023-01-30T01:59:52.973Z,7.80
2023-01-30T02:02:40.596Z,7.90
2023-01-30T02:05:28.524Z,8.00
2023-01-30T02:08:27.577Z,7.90
2023-01-30T02:11:17.595Z,7.70
2023-01-30T02:14:03.369Z,7.90
2023-01-30T02:16:48.963Z,7.80
2023-01-30T02:19:40.184Z,7.80
2023-01-30T02:22:40.969Z,7.80
2023-01-30T02:25:42.131Z,7.70
2023-01-30T02:28:46.661Z,7.60
2023-01-30T02:31:39.531Z,7.70
2023-01-30T02:34:30.895Z,7.80
2023-01-30T02:37:22.919Z,7.70
2023-01-30T02:40:08.516Z,7.70
2023-01-30T02:42:53.980Z,7.70
2023-01-30T02:46:01.850Z,7.70
2023-01-30T02:48:49.953Z,7.60
2023-01-30T02:51:37.172Z,7.60
2023-01-30T02:54:22.902Z,7.70
2023-01-30T02:57:21.785Z,7.70
2023-01-30T03:00:10.094Z,7.70
2023-01-30T03:03:07.755Z,7.70
2023-01-30T03:06:12.349Z,7.50
2023-01-30T03:08:57.949Z,7.60
2023-01-30T03:11:54.581Z,7.60
2023-01-30T03:14:53.005Z,7.70
2023-01-30T03:17:43.878Z,7.70
2023-01-30T03:20:36.651Z,7.70
2023-01-30T03:23:22.102Z,7.70
2023-01-30T03:26:10.038Z,7.70
2023-01-30T03:28:55.534Z,7.80
2023-01-30T03:31:41.525Z,7.80
2023-01-30T03:34:27.293Z,7.80
2023-01-30T03:37:13.055Z,7.90
2023-01-30T03:39:59.274Z,7.80
2023-01-30T03:42:45.570Z,7.80
2023-01-30T03:45:31.080Z,7.80
2023-01-30T03:48:17.236Z,7.80
2023-01-30T03:51:02.912Z,7.70
2023-01-30T03:53:48.641Z,7.70
2023-01-30T03:56:33.819Z,7.80
2023-01-30T03:59:19.477Z,7.90
2023-01-30T04:02:12.059Z,8.00
2023-01-30T04:04:57.735Z,7.90
2023-01-30T04:07:43.929Z,7.90
2023-01-30T04:10:29.365Z,7.90
2023-01-30T04:13:15.021Z,8.00
2023-01-30T04:16:17.368Z,8.00
2023-01-30T04:19:21.726Z,8.00
2023-01-30T04:22:07.334Z,8.00
2023-01-30T04:24:53.053Z,7.90
2023-01-30T04:27:39.340Z,7.90
2023-01-30T04:30:34.664Z,8.00
2023-01-30T04:33:40.959Z,8.00
2023-01-30T04:36:29.318Z,8.10
2023-01-30T04:39:15.214Z,8.10
2023-01-30T04:42:01.014Z,8.20
2023-01-30T04:44:47.681Z,8.60
2023-01-30T04:47:37.916Z,9.10
2023-01-30T04:50:23.934Z,9.70
2023-01-30T04:53:09.740Z,10.10
2023-01-30T04:55:54.996Z,10.50
2023-01-30T04:58:40.559Z,10.80
2023-01-30T05:01:31.358Z,11.10
2023-01-30T05:04:17.727Z,11.30
2023-01-30T05:07:03.494Z,11.50
2023-01-30T05:09:49.174Z,11.60
2023-01-30T05:12:35.095Z,11.80
2023-01-30T05:15:20.961Z,11.90
2023-01-30T05:18:06.375Z,11.90
2023-01-30T05:20:52.045Z,12.00
2023-01-30T05:23:37.849Z,12.00
2023-01-30T05:26:23.923Z,12.10
2023-01-30T05:29:09.903Z,12.10
2023-01-30T05:31:55.542Z,12.10
2023-01-30T05:34:41.340Z,12.20
2023-01-30T05:37:26.979Z,12.20
2023-01-30T05:40:12.828Z,12.20
2023-01-30T05:42:58.681Z,12.30
2023-01-30T05:45:44.282Z,12.30
2023-01-30T05:48:30.224Z,12.30
2023-01-30T05:51:20.081Z,12.40
2023-01-30T05:54:05.583Z,12.40
2023-01-30T05:56:51.250Z,12.40
2023-01-30T05:59:36.531Z,12.50
2023-01-30T06:02:21.993Z,12.50
2023-01-30T06:05:07.799Z,12.50
2023-01-30T06:07:53.266Z,12.60
2023-01-30T06:10:38.940Z,12.80
2023-01-30T06:13:24.620Z,12.90
2023-01-30T06:16:12.029Z,13.10
2023-01-30T06:18:57.364Z,13.20
2023-01-30T06:21:43.149Z,13.40
2023-01-30T06:24:28.993Z,13.50
2023-01-30T06:27:14.563Z,13.60
2023-01-30T06:29:59.883Z,13.70
2023-01-30T06:32:45.687Z,13.80
2023-01-30T06:35:31.216Z,13.90
2023-01-30T06:38:16.883Z,14.00
2023-01-30T06:41:02.604Z,14.00
2023-01-30T06:43:48.426Z,14.10
2023-01-30T06:46:34.173Z,14.20
2023-01-30T06:49:19.835Z,14.30
2023-01-30T06:52:05.363Z,14.40
2023-01-30T06:54:51.069Z,14.40
2023-01-30T06:57:37.186Z,14.50
2023-01-30T07:00:22.915Z,14.60
2023-01-30T07:03:17.161Z,14.70
2023-01-30T07:06:02.640Z,14.70
2023-01-30T07:08:48.380Z,14.60
2023-01-30T07:11:33.940Z,14.70
2023-01-30T07:14:19.588Z,14.70
2023-01-30T07:17:05.264Z,14.80
2023-01-30T07:19:51.044Z,14.70
2023-01-30T07:22:36.488Z,14.80
2023-01-30T07:25:23.079Z,14.80
2023-01-30T07:28:09.418Z,10.80
2023-01-30T07:30:54.859Z,14.80
2023-01-30T07:33:40.425Z,14.80
2023-01-30T07:36:26.064Z,14.80
2023-01-30T07:39:11.713Z,14.80
2023-01-30T07:41:59.954Z,14.80
2023-01-30T07:44:45.591Z,14.90
2023-01-30T07:47:31.395Z,14.80
2023-01-30T07:50:17.452Z,14.80
2023-01-30T07:53:06.785Z,14.80
2023-01-30T07:55:52.125Z,14.90
2023-01-30T07:58:37.794Z,14.90
2023-01-30T08:01:23.681Z,14.90
2023-01-30T08:04:08.941Z,14.80
2023-01-30T08:06:54.712Z,14.80
2023-01-30T08:09:40.281Z,14.80
2023-01-30T08:12:26.018Z,14.80
2023-01-30T08:15:11.707Z,14.80
2023-01-30T08:17:57.673Z,14.80
2023-01-30T08:20:43.270Z,14.80
2023-01-30T08:23:29.016Z,14.80
2023-01-30T08:26:14.750Z,14.80
2023-01-30T08:29:00.552Z,14.70
2023-01-30T08:31:46.235Z,14.70
2023-01-30T08:34:31.955Z,14.70
2023-01-30T08:37:17.163Z,14.70
2023-01-30T08:40:02.823Z,14.70
2023-01-30T08:42:48.511Z,14.70
2023-01-30T08:45:34.420Z,14.70
2023-01-30T08:48:19.874Z,14.70
2023-01-30T08:51:05.398Z,14.70
2023-01-30T08:53:51.067Z,14.70
2023-01-30T08:56:36.757Z,14.80
2023-01-30T08:59:22.282Z,14.80
2023-01-30T09:02:11.332Z,14.70
2023-01-30T09:04:56.817Z,14.80
2023-01-30T09:07:42.316Z,14.80
2023-01-30T09:10:28.046Z,14.80
2023-01-30T09:13:13.753Z,14.90
2023-01-30T09:15:59.353Z,14.90
2023-01-30T09:18:45.154Z,14.90
2023-01-30T09:21:32.058Z,14.90
2023-01-30T09:24:17.740Z,14.90
2023-01-30T09:27:02.917Z,14.90
2023-01-30T09:29:48.761Z,14.90
2023-01-30T09:35:22.765Z,15.20
2023-01-30T09:38:08.505Z,15.20
2023-01-30T09:40:54.530Z,15.10
2023-01-30T09:43:51.776Z,15.10
2023-01-30T09:47:02.940Z,15.10
2023-01-30T09:50:08.115Z,15.00
2023-01-30T09:53:03.072Z,15.10
2023-01-30T09:55:49.133Z,15.10
2023-01-30T09:58:54.289Z,15.10
2023-01-30T10:01:48.858Z,15.10
2023-01-30T10:04:35.858Z,15.10
2023-01-30T10:07:24.638Z,15.10
2023-01-30T10:10:22.356Z,15.10
2023-01-30T10:13:07.966Z,15.10
2023-01-30T10:16:12.188Z,15.10
2023-01-30T10:19:09.282Z,15.20
2023-01-30T10:21:57.782Z,15.10
2023-01-30T10:25:07.743Z,15.10
2023-01-30T10:27:59.630Z,15.10
2023-01-30T10:30:47.489Z,15.10
2023-01-30T10:33:45.375Z,15.10
2023-01-30T10:36:41.169Z,15.10
2023-01-30T10:39:49.616Z,15.10
2023-01-30T10:42:57.681Z,15.10
2023-01-30T10:45:50.443Z,15.20
2023-01-30T10:48:46.601Z,15.20
2023-01-30T10:51:50.679Z,15.20
2023-01-30T10:54:46.907Z,15.20
2023-01-30T10:57:47.713Z,15.20
2023-01-30T11:00:52.173Z,15.20
2023-01-30T11:03:49.921Z,15.20
2023-01-30T11:06:35.825Z,15.20
2023-01-30T11:09:23.770Z,15.10
2023-01-30T11:12:11.323Z,15.20
2023-01-30T11:14:59.038Z,15.20
2023-01-30T11:17:45.286Z,15.20
2023-01-30T11:20:30.956Z,15.20
2023-01-30T11:23:46.139Z,15.20
2023-01-30T11:26:46.782Z,15.20
2023-01-30T11:29:35.138Z,15.20
2023-01-30T11:32:27.994Z,15.20
2023-01-30T11:35:19.600Z,15.20
2023-01-30T11:38:31.544Z,15.20
2023-01-30T11:41:21.549Z,15.20
2023-01-30T11:44:09.266Z,15.30
2023-01-30T11:46:58.130Z,15.40
2023-01-30T11:49:59.090Z,15.30
2023-01-30T11:52:48.144Z,15.30
2023-01-30T11:55:35.398Z,15.30
2023-01-30T11:58:21.009Z,15.30
2023-01-30T12:01:08.156Z,15.30
2023-01-30T12:03:54.816Z,15.30
2023-01-30T12:06:42.402Z,15.30
2023-01-30T12:09:46.275Z,15.30
2023-01-30T12:12:46.111Z,15.40
2023-01-30T12:15:33.034Z,15.40
2023-01-30T12:18:25.445Z,15.40
2023-01-30T12:21:34.324Z,15.30
2023-01-30T12:24:28.876Z,15.40
2023-01-30T12:27:32.623Z,15.40
2023-01-30T12:30:25.042Z,15.50
2023-01-30T12:33:11.878Z,15.50
2023-01-30T12:36:13.005Z,15.40
2023-01-30T12:39:04.656Z,15.50
2023-01-30T12:42:08.999Z,11.50
2023-01-30T12:45:04.096Z,15.50
2023-01-30T12:47:52.844Z,15.50
2023-01-30T12:50:50.231Z,15.50
2023-01-30T12:53:44.056Z,15.50
2023-01-30T12:56:35.853Z,15.50
2023-01-30T12:59:21.468Z,15.50
2023-01-30T13:02:27.044Z,15.50
2023-01-30T13:05:12.835Z,15.60
2023-01-30T13:08:16.743Z,15.60
2023-01-30T13:11:02.508Z,15.60
2023-01-30T13:14:07.079Z,15.70
2023-01-30T13:17:08.056Z,15.80
2023-01-30T13:20:08.141Z,15.80
2023-01-30T13:22:58.277Z,15.80
2023-01-30T13:25:46.644Z,15.90
2023-01-30T13:28:43.729Z,15.90
2023-01-30T13:31:32.062Z,15.90
2023-01-30T13:34:24.587Z,15.90
2023-01-30T13:37:19.887Z,15.90
2023-01-30T13:40:19.606Z,15.90
2023-01-30T13:43:23.290Z,16.00
2023-01-30T13:46:09.606Z,15.90
2023-01-30T13:49:07.352Z,15.90
2023-01-30T13:52:01.743Z,15.90
2023-01-30T13:54:47.260Z,15.90
2023-01-30T13:57:44.949Z,15.90
2023-01-30T14:00:35.082Z,15.90
2023-01-30T14:03:28.937Z,15.90
2023-01-30T14:06:26.664Z,15.90
2023-01-30T14:09:20.213Z,15.90
2023-01-30T14:12:06.830Z,15.90
2023-01-30T14:15:03.560Z,15.90
2023-01-30T14:17:59.391Z,15.90
2023-01-30T14:20:46.284Z,15.90
2023-01-30T14:23:36.284Z,15.80
2023-01-30T14:26:40.530Z,15.90
2023-01-30T14:29:38.554Z,15.90
2023-01-30T14:32:24.335Z,15.90
2023-01-30T14:35:14.144Z,15.90
2023-01-30T14:38:10.286Z,15.90
2023-01-30T14:40:59.144Z,16.00
2023-01-30T14:43:49.713Z,16.00
2023-01-30T14:46:36.498Z,16.00
2023-01-30T14:49:25.495Z,16.00
2023-01-30T14:52:25.553Z,16.00
2023-01-30T14:55:19.823Z,16.10
2023-01-30T14:58:06.126Z,16.10
2023-01-30T15:00:58.669Z,16.00
2023-01-30T15:03:47.733Z,16.00
2023-01-30T15:06:35.680Z,16.00
2023-01-30T15:09:22.756Z,16.00
2023-01-30T15:12:20.270Z,16.00
2023-01-30T15:15:15.220Z,16.00
2023-01-30T15:18:08.422Z,16.00
2023-01-30T15:21:12.996Z,16.10
2023-01-30T15:24:14.012Z,16.10
2023-01-30T15:27:05.949Z,16.10
2023-01-30T15:30:00.543Z,16.10
2023-01-30T15:32:46.404Z,16.10
2023-01-30T15:35:31.747Z,16.10
2023-01-30T15:38:25.125Z,16.10
2023-01-30T15:41:10.961Z,16.10
2023-01-30T15:44:02.699Z,16.10
2023-01-30T15:47:14.785Z,16.20
2023-01-30T15:50:06.172Z,16.10
2023-01-30T15:52:54.046Z,16.20
2023-01-30T15:55:41.996Z,16.20
2023-01-30T15:58:28.381Z,16.20
2023-01-30T16:01:17.950Z,16.20
2023-01-30T16:04:08.028Z,16.20
2023-01-30T16:06:53.583Z,16.20
2023-01-30T16:09:39.206Z,16.20
2023-01-30T16:12:28.865Z,16.20
2023-01-30T16:15:29.496Z,16.30
2023-01-30T16:18:21.435Z,16.30
2023-01-30T16:21:15.915Z,16.20
2023-01-30T16:24:03.887Z,16.30
2023-01-30T16:26:51.477Z,16.30
2023-01-30T16:29:57.072Z,16.30
2023-01-30T16:32:42.687Z,16.30
2023-01-30T16:35:33.267Z,16.20
2023-01-30T16:38:28.601Z,16.30
2023-01-30T16:41:33.783Z,16.30
2023-01-30T16:44:20.633Z,16.30
2023-01-30T16:47:26.153Z,16.40
2023-01-30T16:50:18.466Z,16.40
2023-01-30T16:53:04.583Z,18.00
2023-01-30T16:56:09.992Z,16.40
2023-01-30T16:58:58.766Z,16.40
2023-01-30T17:01:44.448Z,16.40
2023-01-30T17:04:31.519Z,13.50
2023-01-30T17:07:32.363Z,16.40
2023-01-30T17:10:36.697Z,16.40
2023-01-30T17:13:28.520Z,16.40
2023-01-30T17:16:23.212Z,16.50
2023-01-30T17:19:08.797Z,16.50
2023-01-30T17:21:54.676Z,16.30
2023-01-30T17:24:40.512Z,16.40
2023-01-30T17:27:27.257Z,16.40
2023-01-30T17:30:16.604Z,16.40
2023-01-30T17:33:02.448Z,16.40
2023-01-30T17:35:48.334Z,16.40
2023-01-30T17:38:33.763Z,16.30
2023-01-30T17:41:21.039Z,16.20
2023-01-30T17:44:08.472Z,16.20
2023-01-30T17:46:54.447Z,16.20
2023-01-30T17:49:40.159Z,16.20
2023-01-30T17:52:25.941Z,14.90
2023-01-30T17:55:14.581Z,16.10
2023-01-30T17:58:00.208Z,16.10
2023-01-30T18:00:45.558Z,16.10
2023-01-30T18:03:31.961Z,16.00
2023-01-30T18:06:17.812Z,16.10
2023-01-30T18:09:03.548Z,16.00
2023-01-30T18:11:53.887Z,16.00
2023-01-30T18:15:15.416Z,16.00
2023-01-30T18:18:01.344Z,16.00
2023-01-30T18:20:48.390Z,16.00
2023-01-30T18:23:33.908Z,16.00
2023-01-30T18:26:19.524Z,16.10
2023-01-30T18:29:05.163Z,16.10
2023-01-30T18:31:50.889Z,16.00
2023-01-30T18:34:37.633Z,16.10
2023-01-30T18:37:23.070Z,16.10
2023-01-30T18:40:09.514Z,16.10
2023-01-30T18:42:55.192Z,16.10
2023-01-30T18:45:41.045Z,16.10
2023-01-30T18:48:26.552Z,16.10
2023-01-30T18:51:16.940Z,16.10
2023-01-30T18:54:02.538Z,16.10
2023-01-30T18:56:48.020Z,16.10
2023-01-30T18:59:33.721Z,16.10
2023-01-30T19:02:19.410Z,16.10
2023-01-30T19:05:05.164Z,16.10
2023-01-30T19:07:50.612Z,16.20
2023-01-30T19:10:36.133Z,16.10
2023-01-30T19:13:34.112Z,16.20
2023-01-30T19:16:20.360Z,16.10
2023-01-30T19:19:06.382Z,16.20
2023-01-30T19:21:52.354Z,16.20
2023-01-30T19:24:37.639Z,16.20
2023-01-30T19:27:23.558Z,16.20
2023-01-30T19:30:09.154Z,16.20
2023-01-30T19:32:58.630Z,16.20
2023-01-30T19:35:44.531Z,16.20
2023-01-30T19:38:29.855Z,16.20
2023-01-30T19:41:24.997Z,16.20
2023-01-30T19:44:11.683Z,16.20
2023-01-30T19:46:57.303Z,16.20
2023-01-30T19:49:43.054Z,16.20
2023-01-30T19:52:28.866Z,16.20
2023-01-30T19:55:18.630Z,16.30
2023-01-30T19:58:07.592Z,16.30
2023-01-30T20:00:54.251Z,16.30
2023-01-30T20:10:20.912Z,16.40
2023-01-30T20:13:06.987Z,16.40
2023-01-30T20:15:52.663Z,16.40
2023-01-30T20:18:38.909Z,16.40
2023-01-30T20:21:24.645Z,16.40
2023-01-30T20:32:29.320Z,16.50
2023-01-30T20:35:15.790Z,16.40
2023-01-30T20:38:01.929Z,16.30
2023-01-30T20:46:22.172Z,16.40
2023-01-30T20:49:11.214Z,16.40
2023-01-30T20:54:42.863Z,16.30
2023-01-30T20:57:28.591Z,16.30
2023-01-30T21:00:14.093Z,16.20
2023-01-30T21:25:09.684Z,16.10
2023-01-30T21:27:55.266Z,16.00
2023-01-30T21:30:42.076Z,16.00
2023-01-30T21:33:28.588Z,16.00
2023-01-30T21:45:10.757Z,16.00
2023-01-30T21:56:15.504Z,13.70
2023-01-30T22:21:14.582Z,11.00
2023-01-30T22:24:01.600Z,10.90
2023-01-30T22:32:20.333Z,10.80
2023-01-30T22:35:06.246Z,10.80
2023-01-30T22:43:24.196Z,10.60
2023-01-30T22:48:56.382Z,10.30
2023-01-30T22:54:28.958Z,10.40
2023-01-30T22:57:14.654Z,10.30
2023-01-30T23:13:50.719Z,10.10
2023-01-30T23:24:54.310Z,9.90
2023-01-30T23:27:40.139Z,10.00
2023-01-30T23:30:25.683Z,9.90
